sensor_id;sensor_type;location;lat;lon;timestamp;P1;durP1;ratioP1;P2;durP2;ratioP2
82760;SDS011;72498;42.022;21.444;2023-11-21T00:00:01;57.15;;;27.55;;
82760;SDS011;72498;42.022;21.444;2023-11-21T00:02:27;57.08;;;26.40;;
82760;SDS011;72498;42.022;21.444;2023-11-21T00:04:53;53.65;;;27.55;;
82760;SDS011;72498;42.022;21.444;2023-11-21T00:07:21;53.00;;;27.52;;
82760;SDS011;72498;42.022;21.444;2023-11-21T00:09:48;53.30;;;27.08;;
82760;SDS011;72498;42.022;21.444;2023-11-21T00:12:15;59.58;;;27.50;;
82760;SDS011;72498;42.022;21.444;2023-11-21T00:14:41;52.25;;;25.70;;
82760;SDS011;72498;42.022;21.444;2023-11-21T00:17:08;44.47;;;23.05;;
82760;SDS011;72498;42.022;21.444;2023-11-21T00:19:34;47.70;;;23.98;;
82760;SDS011;72498;42.022;21.444;2023-11-21T00:22:01;43.58;;;22.85;;
82760;SDS011;72498;42.022;21.444;2023-11-21T00:24:28;44.03;;;22.30;;
82760;SDS011;72498;42.022;21.444;2023-11-21T00:26:57;46.83;;;23.38;;
82760;SDS011;72498;42.022;21.444;2023-11-21T00:29:24;46.95;;;23.73;;
82760;SDS011;72498;42.022;21.444;2023-11-21T00:32:01;48.33;;;24.85;;
82760;SDS011;72498;42.022;21.444;2023-11-21T00:34:31;51.03;;;22.52;;
82760;SDS011;72498;42.022;21.444;2023-11-21T00:36:58;42.38;;;23.52;;
82760;SDS011;72498;42.022;21.444;2023-11-21T00:39:24;48.58;;;24.13;;
82760;SDS011;72498;42.022;21.444;2023-11-21T00:41:52;43.25;;;23.67;;
82760;SDS011;72498;42.022;21.444;2023-11-21T00:44:18;43.65;;;24.13;;
82760;SDS011;72498;42.022;21.444;2023-11-21T00:46:46;44.83;;;22.77;;
82760;SDS011;72498;42.022;21.444;2023-11-21T00:49:13;46.35;;;24.00;;
82760;SDS011;72498;42.022;21.444;2023-11-21T00:51:39;49.78;;;24.45;;
82760;SDS011;72498;42.022;21.444;2023-11-21T00:54:05;43.15;;;22.95;;
82760;SDS011;72498;42.022;21.444;2023-11-21T00:56:32;44.40;;;23.50;;
82760;SDS011;72498;42.022;21.444;2023-11-21T00:58:59;42.60;;;24.23;;
82760;SDS011;72498;42.022;21.444;2023-11-21T01:01:27;46.35;;;23.88;;
82760;SDS011;72498;42.022;21.444;2023-11-21T01:03:54;54.13;;;25.52;;
82760;SDS011;72498;42.022;21.444;2023-11-21T01:06:23;49.22;;;24.25;;
82760;SDS011;72498;42.022;21.444;2023-11-21T01:08:53;53.13;;;24.45;;
82760;SDS011;72498;42.022;21.444;2023-11-21T01:11:19;47.75;;;23.50;;
82760;SDS011;72498;42.022;21.444;2023-11-21T01:13:45;44.90;;;23.70;;
82760;SDS011;72498;42.022;21.444;2023-11-21T01:16:11;40.95;;;22.83;;
82760;SDS011;72498;42.022;21.444;2023-11-21T01:18:37;48.63;;;24.58;;
82760;SDS011;72498;42.022;21.444;2023-11-21T01:21:04;47.63;;;24.52;;
82760;SDS011;72498;42.022;21.444;2023-11-21T01:23:34;44.05;;;24.38;;
82760;SDS011;72498;42.022;21.444;2023-11-21T01:26:00;48.35;;;23.75;;
82760;SDS011;72498;42.022;21.444;2023-11-21T01:28:26;49.22;;;24.20;;
82760;SDS011;72498;42.022;21.444;2023-11-21T01:30:52;48.72;;;23.45;;
82760;SDS011;72498;42.022;21.444;2023-11-21T01:33:21;43.45;;;23.33;;
82760;SDS011;72498;42.022;21.444;2023-11-21T01:35:50;50.85;;;24.20;;
82760;SDS011;72498;42.022;21.444;2023-11-21T01:38:18;44.20;;;23.25;;
82760;SDS011;72498;42.022;21.444;2023-11-21T01:40:44;51.10;;;24.83;;
82760;SDS011;72498;42.022;21.444;2023-11-21T01:43:10;50.95;;;24.92;;
82760;SDS011;72498;42.022;21.444;2023-11-21T01:45:36;54.08;;;25.58;;
82760;SDS011;72498;42.022;21.444;2023-11-21T01:48:04;50.13;;;25.40;;
82760;SDS011;72498;42.022;21.444;2023-11-21T01:50:32;49.22;;;23.50;;
82760;SDS011;72498;42.022;21.444;2023-11-21T01:52:58;49.55;;;25.23;;
82760;SDS011;72498;42.022;21.444;2023-11-21T01:55:26;56.28;;;26.58;;
82760;SDS011;72498;42.022;21.444;2023-11-21T01:57:55;51.00;;;25.90;;
82760;SDS011;72498;42.022;21.444;2023-11-21T02:00:24;48.72;;;26.33;;
82760;SDS011;72498;42.022;21.444;2023-11-21T02:02:53;55.13;;;27.90;;
82760;SDS011;72498;42.022;21.444;2023-11-21T02:05:19;49.90;;;27.63;;
82760;SDS011;72498;42.022;21.444;2023-11-21T02:07:46;54.05;;;28.60;;
82760;SDS011;72498;42.022;21.444;2023-11-21T02:10:14;52.53;;;28.45;;
82760;SDS011;72498;42.022;21.444;2023-11-21T02:12:40;54.70;;;27.15;;
82760;SDS011;72498;42.022;21.444;2023-11-21T02:15:08;49.83;;;26.80;;
82760;SDS011;72498;42.022;21.444;2023-11-21T02:17:42;57.00;;;28.38;;
82760;SDS011;72498;42.022;21.444;2023-11-21T02:20:11;56.00;;;27.85;;
82760;SDS011;72498;42.022;21.444;2023-11-21T02:22:41;50.90;;;26.95;;
82760;SDS011;72498;42.022;21.444;2023-11-21T02:25:08;49.13;;;25.98;;
82760;SDS011;72498;42.022;21.444;2023-11-21T02:27:34;50.22;;;25.08;;
82760;SDS011;72498;42.022;21.444;2023-11-21T02:30:01;53.72;;;26.35;;
82760;SDS011;72498;42.022;21.444;2023-11-21T02:32:29;42.00;;;23.20;;
82760;SDS011;72498;42.022;21.444;2023-11-21T02:34:56;46.80;;;22.52;;
82760;SDS011;72498;42.022;21.444;2023-11-21T02:37:26;46.95;;;22.95;;
82760;SDS011;72498;42.022;21.444;2023-11-21T02:39:53;44.45;;;22.08;;
82760;SDS011;72498;42.022;21.444;2023-11-21T02:42:19;42.55;;;22.17;;
82760;SDS011;72498;42.022;21.444;2023-11-21T02:44:45;39.33;;;21.40;;
82760;SDS011;72498;42.022;21.444;2023-11-21T02:47:11;40.53;;;20.25;;
82760;SDS011;72498;42.022;21.444;2023-11-21T02:49:37;40.25;;;20.30;;
82760;SDS011;72498;42.022;21.444;2023-11-21T02:52:04;41.88;;;20.55;;
82760;SDS011;72498;42.022;21.444;2023-11-21T02:54:30;38.33;;;21.25;;
82760;SDS011;72498;42.022;21.444;2023-11-21T02:56:56;39.00;;;19.83;;
82760;SDS011;72498;42.022;21.444;2023-11-21T02:59:23;39.88;;;18.70;;
82760;SDS011;72498;42.022;21.444;2023-11-21T03:01:50;37.40;;;17.50;;
82760;SDS011;72498;42.022;21.444;2023-11-21T03:04:16;33.40;;;17.52;;
82760;SDS011;72498;42.022;21.444;2023-11-21T03:06:43;35.22;;;18.83;;
82760;SDS011;72498;42.022;21.444;2023-11-21T03:09:09;35.85;;;19.85;;
82760;SDS011;72498;42.022;21.444;2023-11-21T03:11:37;39.28;;;20.20;;
82760;SDS011;72498;42.022;21.444;2023-11-21T03:14:03;39.15;;;20.67;;
82760;SDS011;72498;42.022;21.444;2023-11-21T03:16:31;35.42;;;19.30;;
82760;SDS011;72498;42.022;21.444;2023-11-21T03:18:57;39.00;;;19.30;;
82760;SDS011;72498;42.022;21.444;2023-11-21T03:21:24;39.72;;;19.58;;
82760;SDS011;72498;42.022;21.444;2023-11-21T03:23:51;39.13;;;18.67;;
82760;SDS011;72498;42.022;21.444;2023-11-21T03:26:18;36.13;;;19.35;;
82760;SDS011;72498;42.022;21.444;2023-11-21T03:28:44;34.75;;;19.98;;
82760;SDS011;72498;42.022;21.444;2023-11-21T03:31:11;33.45;;;19.85;;
82760;SDS011;72498;42.022;21.444;2023-11-21T03:33:38;45.20;;;20.92;;
82760;SDS011;72498;42.022;21.444;2023-11-21T03:36:04;35.80;;;19.08;;
82760;SDS011;72498;42.022;21.444;2023-11-21T03:38:32;40.00;;;19.67;;
82760;SDS011;72498;42.022;21.444;2023-11-21T03:40:59;35.53;;;19.25;;
82760;SDS011;72498;42.022;21.444;2023-11-21T03:43:25;33.92;;;19.20;;
82760;SDS011;72498;42.022;21.444;2023-11-21T03:45:51;36.00;;;19.25;;
82760;SDS011;72498;42.022;21.444;2023-11-21T03:48:17;37.75;;;20.05;;
82760;SDS011;72498;42.022;21.444;2023-11-21T03:50:43;39.60;;;20.67;;
82760;SDS011;72498;42.022;21.444;2023-11-21T03:53:09;38.33;;;20.52;;
82760;SDS011;72498;42.022;21.444;2023-11-21T03:55:35;37.97;;;18.45;;
82760;SDS011;72498;42.022;21.444;2023-11-21T03:58:03;37.15;;;20.38;;
82760;SDS011;72498;42.022;21.444;2023-11-21T04:00:29;42.70;;;20.60;;
82760;SDS011;72498;42.022;21.444;2023-11-21T04:02:55;37.92;;;20.63;;
82760;SDS011;72498;42.022;21.444;2023-11-21T04:05:21;38.65;;;20.55;;
82760;SDS011;72498;42.022;21.444;2023-11-21T04:07:48;39.70;;;20.63;;
82760;SDS011;72498;42.022;21.444;2023-11-21T04:10:15;36.90;;;19.67;;
82760;SDS011;72498;42.022;21.444;2023-11-21T04:12:41;40.95;;;19.95;;
82760;SDS011;72498;42.022;21.444;2023-11-21T04:15:07;44.17;;;20.42;;
82760;SDS011;72498;42.022;21.444;2023-11-21T04:17:34;38.55;;;20.10;;
82760;SDS011;72498;42.022;21.444;2023-11-21T04:20:02;44.40;;;19.95;;
82760;SDS011;72498;42.022;21.444;2023-11-21T04:22:28;34.08;;;20.05;;
82760;SDS011;72498;42.022;21.444;2023-11-21T04:24:54;35.88;;;19.35;;
82760;SDS011;72498;42.022;21.444;2023-11-21T04:27:20;40.38;;;21.00;;
82760;SDS011;72498;42.022;21.444;2023-11-21T04:29:47;37.70;;;20.50;;
82760;SDS011;72498;42.022;21.444;2023-11-21T04:32:13;42.13;;;19.80;;
82760;SDS011;72498;42.022;21.444;2023-11-21T04:34:39;43.13;;;22.67;;
82760;SDS011;72498;42.022;21.444;2023-11-21T04:37:05;46.15;;;23.30;;
82760;SDS011;72498;42.022;21.444;2023-11-21T04:39:31;41.58;;;20.67;;
82760;SDS011;72498;42.022;21.444;2023-11-21T04:41:57;36.55;;;20.45;;
82760;SDS011;72498;42.022;21.444;2023-11-21T04:44:23;38.70;;;22.80;;
82760;SDS011;72498;42.022;21.444;2023-11-21T04:46:49;49.15;;;23.70;;
82760;SDS011;72498;42.022;21.444;2023-11-21T04:49:16;47.88;;;24.20;;
82760;SDS011;72498;42.022;21.444;2023-11-21T04:51:42;45.40;;;22.80;;
82760;SDS011;72498;42.022;21.444;2023-11-21T04:54:08;44.40;;;22.85;;
82760;SDS011;72498;42.022;21.444;2023-11-21T04:56:35;41.42;;;22.17;;
82760;SDS011;72498;42.022;21.444;2023-11-21T04:59:01;42.80;;;22.15;;
82760;SDS011;72498;42.022;21.444;2023-11-21T05:01:27;40.35;;;19.98;;
82760;SDS011;72498;42.022;21.444;2023-11-21T05:03:54;37.33;;;20.38;;
82760;SDS011;72498;42.022;21.444;2023-11-21T05:06:22;41.30;;;20.90;;
82760;SDS011;72498;42.022;21.444;2023-11-21T05:08:49;42.90;;;21.15;;
82760;SDS011;72498;42.022;21.444;2023-11-21T05:11:25;49.28;;;21.88;;
82760;SDS011;72498;42.022;21.444;2023-11-21T05:13:51;44.25;;;22.13;;
82760;SDS011;72498;42.022;21.444;2023-11-21T05:16:18;42.30;;;22.83;;
82760;SDS011;72498;42.022;21.444;2023-11-21T05:18:45;42.13;;;22.52;;
82760;SDS011;72498;42.022;21.444;2023-11-21T05:21:11;44.03;;;22.13;;
82760;SDS011;72498;42.022;21.444;2023-11-21T05:23:37;43.55;;;23.45;;
82760;SDS011;72498;42.022;21.444;2023-11-21T05:26:03;42.92;;;22.30;;
82760;SDS011;72498;42.022;21.444;2023-11-21T05:28:29;47.13;;;24.65;;
82760;SDS011;72498;42.022;21.444;2023-11-21T05:30:55;54.67;;;27.17;;
82760;SDS011;72498;42.022;21.444;2023-11-21T05:33:21;51.67;;;26.63;;
82760;SDS011;72498;42.022;21.444;2023-11-21T05:35:48;51.65;;;25.50;;
82760;SDS011;72498;42.022;21.444;2023-11-21T05:38:14;46.80;;;24.35;;
82760;SDS011;72498;42.022;21.444;2023-11-21T05:40:40;52.92;;;26.67;;
82760;SDS011;72498;42.022;21.444;2023-11-21T05:43:06;47.35;;;24.55;;
82760;SDS011;72498;42.022;21.444;2023-11-21T05:45:32;49.45;;;24.88;;
82760;SDS011;72498;42.022;21.444;2023-11-21T05:47:59;56.28;;;24.98;;
82760;SDS011;72498;42.022;21.444;2023-11-21T05:50:26;49.65;;;25.67;;
82760;SDS011;72498;42.022;21.444;2023-11-21T05:52:52;51.03;;;26.88;;
82760;SDS011;72498;42.022;21.444;2023-11-21T05:55:18;46.10;;;24.77;;
82760;SDS011;72498;42.022;21.444;2023-11-21T05:57:46;52.85;;;22.58;;
82760;SDS011;72498;42.022;21.444;2023-11-21T06:00:13;61.47;;;28.35;;
82760;SDS011;72498;42.022;21.444;2023-11-21T06:02:50;52.83;;;26.92;;
82760;SDS011;72498;42.022;21.444;2023-11-21T06:05:18;53.35;;;26.10;;
82760;SDS011;72498;42.022;21.444;2023-11-21T06:07:45;58.97;;;25.73;;
82760;SDS011;72498;42.022;21.444;2023-11-21T06:10:12;54.78;;;26.60;;
82760;SDS011;72498;42.022;21.444;2023-11-21T06:12:39;51.15;;;24.17;;
82760;SDS011;72498;42.022;21.444;2023-11-21T06:15:08;42.22;;;22.58;;
82760;SDS011;72498;42.022;21.444;2023-11-21T06:20:40;50.47;;;24.30;;
82760;SDS011;72498;42.022;21.444;2023-11-21T06:23:14;53.03;;;23.25;;
82760;SDS011;72498;42.022;21.444;2023-11-21T06:25:47;42.45;;;22.55;;
82760;SDS011;72498;42.022;21.444;2023-11-21T06:28:14;46.20;;;23.70;;
82760;SDS011;72498;42.022;21.444;2023-11-21T11:18:01;98.95;;;41.35;;
82760;SDS011;72498;42.022;21.444;2023-11-21T11:49:27;96.07;;;42.47;;
82760;SDS011;72498;42.022;21.444;2023-11-21T12:49:01;58.78;;;25.58;;
82760;SDS011;72498;42.022;21.444;2023-11-21T20:06:03;115.10;;;55.53;;
82760;SDS011;72498;42.022;21.444;2023-11-21T21:09:02;127.32;;;62.92;;
82760;SDS011;72498;42.022;21.444;2023-11-21T21:11:30;124.68;;;61.28;;
82760;SDS011;72498;42.022;21.444;2023-11-21T22:01:09;87.53;;;44.10;;
82760;SDS011;72498;42.022;21.444;2023-11-21T22:03:35;85.45;;;42.72;;
82760;SDS011;72498;42.022;21.444;2023-11-21T22:19:22;75.68;;;38.33;;
82760;SDS011;72498;42.022;21.444;2023-11-21T22:21:50;72.35;;;38.90;;
82760;SDS011;72498;42.022;21.444;2023-11-21T22:24:20;76.05;;;36.58;;
82760;SDS011;72498;42.022;21.444;2023-11-21T22:27:13;72.53;;;35.25;;
82760;SDS011;72498;42.022;21.444;2023-11-21T22:29:41;70.78;;;37.85;;
82760;SDS011;72498;42.022;21.444;2023-11-21T22:43:13;69.25;;;35.22;;
82760;SDS011;72498;42.022;21.444;2023-11-21T22:45:47;69.97;;;36.08;;
82760;SDS011;72498;42.022;21.444;2023-11-21T22:48:33;67.82;;;32.78;;
82760;SDS011;72498;42.022;21.444;2023-11-21T22:50:59;60.20;;;33.05;;
82760;SDS011;72498;42.022;21.444;2023-11-21T22:53:29;62.53;;;32.30;;
82760;SDS011;72498;42.022;21.444;2023-11-21T22:55:57;51.75;;;29.60;;
82760;SDS011;72498;42.022;21.444;2023-11-21T22:58:48;55.63;;;29.83;;
82760;SDS011;72498;42.022;21.444;2023-11-21T23:01:16;54.78;;;30.58;;
82760;SDS011;72498;42.022;21.444;2023-11-21T23:03:53;56.92;;;31.38;;
82760;SDS011;72498;42.022;21.444;2023-11-21T23:06:41;61.72;;;32.58;;
82760;SDS011;72498;42.022;21.444;2023-11-21T23:23:07;66.90;;;34.63;;
82760;SDS011;72498;42.022;21.444;2023-11-21T23:26:00;66.97;;;35.58;;
82760;SDS011;72498;42.022;21.444;2023-11-21T23:41:33;86.95;;;46.28;;
82760;SDS011;72498;42.022;21.444;2023-11-21T23:44:05;95.25;;;47.65;;
82760;SDS011;72498;42.022;21.444;2023-11-21T23:51:44;97.20;;;48.92;;
82760;SDS011;72498;42.022;21.444;2023-11-21T23:54:16;90.47;;;48.65;;
82760;SDS011;72498;42.022;21.444;2023-11-21T23:56:47;85.45;;;46.65;;
82760;SDS011;72498;42.022;21.444;2023-11-21T23:59:15;83.45;;;44.67;;
